sensor_id;sensor_type;location;lat;lon;timestamp;P1;durP1;ratioP1;P2;durP2;ratioP2
7773;SDS011;3931;42.260;23.116;2023-07-02T00:01:02;17.87;;;6.77;;
7773;SDS011;3931;42.260;23.116;2023-07-02T00:03:29;16.27;;;7.90;;
7773;SDS011;3931;42.260;23.116;2023-07-02T00:05:55;21.13;;;7.63;;
7773;SDS011;3931;42.260;23.116;2023-07-02T00:08:23;14.23;;;7.30;;
7773;SDS011;3931;42.260;23.116;2023-07-02T00:10:49;17.03;;;7.40;;
7773;SDS011;3931;42.260;23.116;2023-07-02T00:13:15;14.17;;;7.03;;
7773;SDS011;3931;42.260;23.116;2023-07-02T00:15:41;19.17;;;8.10;;
7773;SDS011;3931;42.260;23.116;2023-07-02T00:18:07;14.50;;;6.93;;
7773;SDS011;3931;42.260;23.116;2023-07-02T00:20:33;20.20;;;7.70;;
7773;SDS011;3931;42.260;23.116;2023-07-02T00:23:02;16.20;;;7.57;;
7773;SDS011;3931;42.260;23.116;2023-07-02T00:25:29;20.23;;;7.30;;
7773;SDS011;3931;42.260;23.116;2023-07-02T00:27:55;13.83;;;7.53;;
7773;SDS011;3931;42.260;23.116;2023-07-02T00:30:21;17.80;;;7.70;;
7773;SDS011;3931;42.260;23.116;2023-07-02T00:32:47;12.73;;;7.93;;
7773;SDS011;3931;42.260;23.116;2023-07-02T00:35:13;16.33;;;7.00;;
7773;SDS011;3931;42.260;23.116;2023-07-02T00:37:40;13.77;;;7.80;;
7773;SDS011;3931;42.260;23.116;2023-07-02T00:40:06;18.67;;;7.53;;
7773;SDS011;3931;42.260;23.116;2023-07-02T00:42:34;15.93;;;9.00;;
7773;SDS011;3931;42.260;23.116;2023-07-02T00:45:00;15.40;;;9.07;;
7773;SDS011;3931;42.260;23.116;2023-07-02T00:47:28;20.60;;;8.70;;
7773;SDS011;3931;42.260;23.116;2023-07-02T00:49:54;22.37;;;8.63;;
7773;SDS011;3931;42.260;23.116;2023-07-02T00:52:20;16.93;;;7.50;;
7773;SDS011;3931;42.260;23.116;2023-07-02T00:54:48;13.93;;;7.70;;
7773;SDS011;3931;42.260;23.116;2023-07-02T00:57:15;15.37;;;8.40;;
7773;SDS011;3931;42.260;23.116;2023-07-02T00:59:41;15.43;;;7.93;;
7773;SDS011;3931;42.260;23.116;2023-07-02T01:02:07;28.10;;;9.27;;
7773;SDS011;3931;42.260;23.116;2023-07-02T01:04:33;18.40;;;8.50;;
7773;SDS011;3931;42.260;23.116;2023-07-02T01:06:59;17.30;;;8.57;;
7773;SDS011;3931;42.260;23.116;2023-07-02T01:09:27;17.63;;;8.40;;
7773;SDS011;3931;42.260;23.116;2023-07-02T01:11:54;14.97;;;8.00;;
7773;SDS011;3931;42.260;23.116;2023-07-02T01:14:22;21.80;;;8.07;;
7773;SDS011;3931;42.260;23.116;2023-07-02T01:16:52;21.70;;;8.80;;
7773;SDS011;3931;42.260;23.116;2023-07-02T01:19:21;16.53;;;8.30;;
7773;SDS011;3931;42.260;23.116;2023-07-02T01:21:53;18.90;;;8.23;;
7773;SDS011;3931;42.260;23.116;2023-07-02T01:24:19;14.53;;;7.93;;
7773;SDS011;3931;42.260;23.116;2023-07-02T01:26:46;24.37;;;9.33;;
7773;SDS011;3931;42.260;23.116;2023-07-02T01:29:15;14.77;;;8.70;;
7773;SDS011;3931;42.260;23.116;2023-07-02T01:31:42;15.03;;;7.70;;
7773;SDS011;3931;42.260;23.116;2023-07-02T01:34:09;14.30;;;8.70;;
7773;SDS011;3931;42.260;23.116;2023-07-02T01:36:35;19.40;;;8.47;;
7773;SDS011;3931;42.260;23.116;2023-07-02T01:39:03;12.73;;;8.13;;
7773;SDS011;3931;42.260;23.116;2023-07-02T01:41:31;14.67;;;9.73;;
7773;SDS011;3931;42.260;23.116;2023-07-02T01:43:59;18.87;;;9.17;;
7773;SDS011;3931;42.260;23.116;2023-07-02T01:46:25;15.67;;;9.23;;
7773;SDS011;3931;42.260;23.116;2023-07-02T01:48:51;19.70;;;7.90;;
7773;SDS011;3931;42.260;23.116;2023-07-02T01:51:17;14.83;;;8.70;;
7773;SDS011;3931;42.260;23.116;2023-07-02T01:53:43;14.90;;;8.83;;
7773;SDS011;3931;42.260;23.116;2023-07-02T01:56:10;15.53;;;9.00;;
7773;SDS011;3931;42.260;23.116;2023-07-02T01:58:36;15.23;;;8.50;;
7773;SDS011;3931;42.260;23.116;2023-07-02T02:01:02;13.80;;;8.20;;
7773;SDS011;3931;42.260;23.116;2023-07-02T02:03:28;29.63;;;9.20;;
7773;SDS011;3931;42.260;23.116;2023-07-02T02:05:54;19.40;;;9.00;;
7773;SDS011;3931;42.260;23.116;2023-07-02T02:08:20;15.20;;;8.20;;
7773;SDS011;3931;42.260;23.116;2023-07-02T02:10:46;19.43;;;8.20;;
7773;SDS011;3931;42.260;23.116;2023-07-02T02:13:13;21.00;;;8.93;;
7773;SDS011;3931;42.260;23.116;2023-07-02T02:15:39;14.80;;;8.37;;
7773;SDS011;3931;42.260;23.116;2023-07-02T02:18:06;22.10;;;8.70;;
7773;SDS011;3931;42.260;23.116;2023-07-02T02:20:32;26.90;;;9.30;;
7773;SDS011;3931;42.260;23.116;2023-07-02T02:22:58;23.50;;;9.60;;
7773;SDS011;3931;42.260;23.116;2023-07-02T02:25:24;22.20;;;8.80;;
7773;SDS011;3931;42.260;23.116;2023-07-02T02:27:50;16.63;;;9.30;;
7773;SDS011;3931;42.260;23.116;2023-07-02T02:30:17;20.10;;;9.60;;
7773;SDS011;3931;42.260;23.116;2023-07-02T02:32:43;17.80;;;9.20;;
7773;SDS011;3931;42.260;23.116;2023-07-02T02:35:09;19.03;;;8.70;;
7773;SDS011;3931;42.260;23.116;2023-07-02T02:37:37;14.30;;;8.03;;
7773;SDS011;3931;42.260;23.116;2023-07-02T02:40:04;18.13;;;9.23;;
7773;SDS011;3931;42.260;23.116;2023-07-02T02:42:31;18.30;;;8.70;;
7773;SDS011;3931;42.260;23.116;2023-07-02T02:44:57;21.23;;;9.47;;
7773;SDS011;3931;42.260;23.116;2023-07-02T02:47:24;17.23;;;8.90;;
7773;SDS011;3931;42.260;23.116;2023-07-02T02:49:50;22.03;;;8.70;;
7773;SDS011;3931;42.260;23.116;2023-07-02T02:52:16;16.03;;;9.40;;
7773;SDS011;3931;42.260;23.116;2023-07-02T02:54:43;17.07;;;9.07;;
7773;SDS011;3931;42.260;23.116;2023-07-02T02:57:09;20.20;;;9.17;;
7773;SDS011;3931;42.260;23.116;2023-07-02T02:59:35;13.27;;;8.77;;
7773;SDS011;3931;42.260;23.116;2023-07-02T03:02:01;19.17;;;8.67;;
7773;SDS011;3931;42.260;23.116;2023-07-02T03:04:28;23.20;;;8.93;;
7773;SDS011;3931;42.260;23.116;2023-07-02T03:06:54;19.70;;;9.20;;
7773;SDS011;3931;42.260;23.116;2023-07-02T03:09:21;20.60;;;8.77;;
7773;SDS011;3931;42.260;23.116;2023-07-02T03:11:47;15.80;;;8.20;;
7773;SDS011;3931;42.260;23.116;2023-07-02T03:14:13;18.70;;;8.60;;
7773;SDS011;3931;42.260;23.116;2023-07-02T03:16:39;14.33;;;8.57;;
7773;SDS011;3931;42.260;23.116;2023-07-02T03:19:05;17.90;;;8.13;;
7773;SDS011;3931;42.260;23.116;2023-07-02T03:21:32;17.10;;;8.03;;
7773;SDS011;3931;42.260;23.116;2023-07-02T03:23:58;16.97;;;7.80;;
7773;SDS011;3931;42.260;23.116;2023-07-02T03:26:24;14.70;;;7.40;;
7773;SDS011;3931;42.260;23.116;2023-07-02T03:28:50;16.83;;;8.17;;
7773;SDS011;3931;42.260;23.116;2023-07-02T03:31:16;13.20;;;7.77;;
7773;SDS011;3931;42.260;23.116;2023-07-02T03:33:43;17.20;;;8.80;;
7773;SDS011;3931;42.260;23.116;2023-07-02T03:36:09;12.57;;;7.80;;
7773;SDS011;3931;42.260;23.116;2023-07-02T03:38:35;21.80;;;8.23;;
7773;SDS011;3931;42.260;23.116;2023-07-02T03:41:01;12.50;;;7.03;;
7773;SDS011;3931;42.260;23.116;2023-07-02T03:43:27;9.43;;;6.50;;
7773;SDS011;3931;42.260;23.116;2023-07-02T03:45:53;10.83;;;6.13;;
7773;SDS011;3931;42.260;23.116;2023-07-02T03:48:19;8.83;;;5.97;;
7773;SDS011;3931;42.260;23.116;2023-07-02T03:50:46;12.30;;;7.33;;
7773;SDS011;3931;42.260;23.116;2023-07-02T03:53:12;9.20;;;6.40;;
7773;SDS011;3931;42.260;23.116;2023-07-02T03:55:38;17.03;;;7.77;;
7773;SDS011;3931;42.260;23.116;2023-07-02T03:58:05;11.97;;;6.37;;
7773;SDS011;3931;42.260;23.116;2023-07-02T04:00:31;13.07;;;6.70;;
7773;SDS011;3931;42.260;23.116;2023-07-02T04:02:57;10.07;;;6.20;;
7773;SDS011;3931;42.260;23.116;2023-07-02T04:05:23;12.43;;;6.50;;
7773;SDS011;3931;42.260;23.116;2023-07-02T04:07:49;11.67;;;6.60;;
7773;SDS011;3931;42.260;23.116;2023-07-02T04:10:15;12.17;;;6.53;;
7773;SDS011;3931;42.260;23.116;2023-07-02T04:12:42;10.33;;;5.90;;
7773;SDS011;3931;42.260;23.116;2023-07-02T04:15:08;7.90;;;5.57;;
7773;SDS011;3931;42.260;23.116;2023-07-02T04:17:35;10.77;;;5.90;;
7773;SDS011;3931;42.260;23.116;2023-07-02T04:20:01;9.87;;;5.57;;
7773;SDS011;3931;42.260;23.116;2023-07-02T04:22:28;8.73;;;5.43;;
7773;SDS011;3931;42.260;23.116;2023-07-02T04:24:54;8.60;;;5.27;;
7773;SDS011;3931;42.260;23.116;2023-07-02T04:27:21;7.80;;;5.17;;
7773;SDS011;3931;42.260;23.116;2023-07-02T04:29:48;7.07;;;4.37;;
7773;SDS011;3931;42.260;23.116;2023-07-02T04:32:15;8.23;;;5.23;;
7773;SDS011;3931;42.260;23.116;2023-07-02T04:34:41;6.80;;;4.57;;
7773;SDS011;3931;42.260;23.116;2023-07-02T04:37:08;8.57;;;5.10;;
7773;SDS011;3931;42.260;23.116;2023-07-02T04:39:34;7.07;;;4.40;;
7773;SDS011;3931;42.260;23.116;2023-07-02T04:42:00;5.83;;;4.70;;
7773;SDS011;3931;42.260;23.116;2023-07-02T04:44:27;10.50;;;6.20;;
7773;SDS011;3931;42.260;23.116;2023-07-02T04:46:56;12.10;;;5.57;;
7773;SDS011;3931;42.260;23.116;2023-07-02T04:49:25;8.53;;;5.37;;
7773;SDS011;3931;42.260;23.116;2023-07-02T04:51:52;13.23;;;7.50;;
7773;SDS011;3931;42.260;23.116;2023-07-02T04:54:19;10.10;;;6.13;;
7773;SDS011;3931;42.260;23.116;2023-07-02T04:56:46;8.87;;;5.50;;
7773;SDS011;3931;42.260;23.116;2023-07-02T04:59:13;7.77;;;5.30;;
7773;SDS011;3931;42.260;23.116;2023-07-02T05:01:39;9.63;;;5.40;;
7773;SDS011;3931;42.260;23.116;2023-07-02T05:04:06;6.67;;;4.60;;
7773;SDS011;3931;42.260;23.116;2023-07-02T05:06:32;8.23;;;5.20;;
7773;SDS011;3931;42.260;23.116;2023-07-02T05:08:58;9.40;;;5.70;;
7773;SDS011;3931;42.260;23.116;2023-07-02T05:11:24;7.73;;;5.50;;
7773;SDS011;3931;42.260;23.116;2023-07-02T05:13:50;8.43;;;6.10;;
7773;SDS011;3931;42.260;23.116;2023-07-02T05:16:16;9.80;;;5.10;;
7773;SDS011;3931;42.260;23.116;2023-07-02T05:18:42;7.63;;;5.60;;
7773;SDS011;3931;42.260;23.116;2023-07-02T05:21:09;9.23;;;5.83;;
7773;SDS011;3931;42.260;23.116;2023-07-02T05:23:35;11.10;;;5.00;;
7773;SDS011;3931;42.260;23.116;2023-07-02T05:26:01;8.70;;;5.40;;
7773;SDS011;3931;42.260;23.116;2023-07-02T05:28:27;8.70;;;5.40;;
7773;SDS011;3931;42.260;23.116;2023-07-02T05:30:53;8.40;;;5.60;;
7773;SDS011;3931;42.260;23.116;2023-07-02T05:33:19;8.63;;;5.43;;
7773;SDS011;3931;42.260;23.116;2023-07-02T05:35:47;15.63;;;5.67;;
7773;SDS011;3931;42.260;23.116;2023-07-02T05:38:13;10.70;;;6.03;;
7773;SDS011;3931;42.260;23.116;2023-07-02T05:40:40;8.90;;;6.30;;
7773;SDS011;3931;42.260;23.116;2023-07-02T05:43:06;8.23;;;5.70;;
7773;SDS011;3931;42.260;23.116;2023-07-02T05:45:32;9.00;;;6.50;;
7773;SDS011;3931;42.260;23.116;2023-07-02T05:47:58;8.47;;;6.20;;
7773;SDS011;3931;42.260;23.116;2023-07-02T05:50:25;9.33;;;6.03;;
7773;SDS011;3931;42.260;23.116;2023-07-02T05:52:51;10.67;;;6.40;;
7773;SDS011;3931;42.260;23.116;2023-07-02T05:55:17;8.33;;;5.97;;
7773;SDS011;3931;42.260;23.116;2023-07-02T05:57:43;12.97;;;6.13;;
7773;SDS011;3931;42.260;23.116;2023-07-02T06:00:10;10.17;;;5.53;;
7773;SDS011;3931;42.260;23.116;2023-07-02T06:02:37;10.53;;;6.27;;
7773;SDS011;3931;42.260;23.116;2023-07-02T06:05:04;22.43;;;6.57;;
7773;SDS011;3931;42.260;23.116;2023-07-02T06:07:30;10.17;;;5.67;;
7773;SDS011;3931;42.260;23.116;2023-07-02T06:09:56;9.47;;;6.30;;
7773;SDS011;3931;42.260;23.116;2023-07-02T06:12:23;11.70;;;7.30;;
7773;SDS011;3931;42.260;23.116;2023-07-02T06:14:49;10.73;;;6.40;;
7773;SDS011;3931;42.260;23.116;2023-07-02T06:17:15;9.53;;;6.90;;
7773;SDS011;3931;42.260;23.116;2023-07-02T06:19:42;13.00;;;5.97;;
7773;SDS011;3931;42.260;23.116;2023-07-02T06:22:10;8.37;;;5.37;;
7773;SDS011;3931;42.260;23.116;2023-07-02T06:24:36;10.50;;;6.50;;
7773;SDS011;3931;42.260;23.116;2023-07-02T06:27:02;14.30;;;6.30;;
7773;SDS011;3931;42.260;23.116;2023-07-02T06:29:29;8.77;;;5.70;;
7773;SDS011;3931;42.260;23.116;2023-07-02T06:31:55;13.80;;;6.60;;
7773;SDS011;3931;42.260;23.116;2023-07-02T06:34:22;9.53;;;5.60;;
7773;SDS011;3931;42.260;23.116;2023-07-02T06:36:48;12.20;;;6.50;;
7773;SDS011;3931;42.260;23.116;2023-07-02T06:39:14;10.70;;;6.67;;
7773;SDS011;3931;42.260;23.116;2023-07-02T06:41:40;9.40;;;6.10;;
7773;SDS011;3931;42.260;23.116;2023-07-02T06:44:06;8.30;;;5.53;;
7773;SDS011;3931;42.260;23.116;2023-07-02T06:46:33;13.37;;;6.00;;
7773;SDS011;3931;42.260;23.116;2023-07-02T06:48:59;8.53;;;5.63;;
7773;SDS011;3931;42.260;23.116;2023-07-02T06:51:25;13.10;;;6.10;;
7773;SDS011;3931;42.260;23.116;2023-07-02T06:53:52;9.33;;;5.80;;
7773;SDS011;3931;42.260;23.116;2023-07-02T06:56:18;9.70;;;6.23;;
7773;SDS011;3931;42.260;23.116;2023-07-02T06:58:44;10.20;;;6.30;;
7773;SDS011;3931;42.260;23.116;2023-07-02T07:01:10;8.80;;;6.00;;
7773;SDS011;3931;42.260;23.116;2023-07-02T07:03:37;12.50;;;7.20;;
7773;SDS011;3931;42.260;23.116;2023-07-02T07:06:03;22.13;;;13.33;;
7773;SDS011;3931;42.260;23.116;2023-07-02T07:08:29;12.10;;;7.07;;
7773;SDS011;3931;42.260;23.116;2023-07-02T07:10:55;10.70;;;6.33;;
7773;SDS011;3931;42.260;23.116;2023-07-02T07:13:21;9.43;;;5.97;;
7773;SDS011;3931;42.260;23.116;2023-07-02T07:15:47;8.93;;;6.50;;
7773;SDS011;3931;42.260;23.116;2023-07-02T07:18:13;38.70;;;22.33;;
7773;SDS011;3931;42.260;23.116;2023-07-02T07:20:41;23.93;;;15.67;;
7773;SDS011;3931;42.260;23.116;2023-07-02T07:23:07;27.63;;;16.50;;
7773;SDS011;3931;42.260;23.116;2023-07-02T07:25:34;9.67;;;7.47;;
7773;SDS011;3931;42.260;23.116;2023-07-02T07:28:00;14.23;;;10.03;;
7773;SDS011;3931;42.260;23.116;2023-07-02T07:30:29;8.47;;;5.93;;
7773;SDS011;3931;42.260;23.116;2023-07-02T07:32:55;9.83;;;6.00;;
7773;SDS011;3931;42.260;23.116;2023-07-02T07:35:21;15.73;;;5.80;;
7773;SDS011;3931;42.260;23.116;2023-07-02T07:37:48;8.70;;;6.27;;
7773;SDS011;3931;42.260;23.116;2023-07-02T07:40:14;9.90;;;6.23;;
7773;SDS011;3931;42.260;23.116;2023-07-02T07:42:41;9.33;;;5.80;;
7773;SDS011;3931;42.260;23.116;2023-07-02T07:45:07;8.43;;;5.70;;
7773;SDS011;3931;42.260;23.116;2023-07-02T07:47:35;21.07;;;7.27;;
7773;SDS011;3931;42.260;23.116;2023-07-02T07:50:01;10.70;;;7.27;;
7773;SDS011;3931;42.260;23.116;2023-07-02T07:52:27;12.77;;;6.03;;
7773;SDS011;3931;42.260;23.116;2023-07-02T07:54:54;9.33;;;5.90;;
7773;SDS011;3931;42.260;23.116;2023-07-02T07:57:20;7.60;;;5.80;;
7773;SDS011;3931;42.260;23.116;2023-07-02T07:59:46;7.63;;;5.10;;
7773;SDS011;3931;42.260;23.116;2023-07-02T08:02:12;15.20;;;5.87;;
7773;SDS011;3931;42.260;23.116;2023-07-02T08:04:38;19.90;;;6.10;;
7773;SDS011;3931;42.260;23.116;2023-07-02T08:07:04;14.53;;;5.50;;
7773;SDS011;3931;42.260;23.116;2023-07-02T08:09:31;7.73;;;5.60;;
7773;SDS011;3931;42.260;23.116;2023-07-02T08:11:58;10.93;;;5.43;;
7773;SDS011;3931;42.260;23.116;2023-07-02T08:14:24;10.10;;;7.30;;
7773;SDS011;3931;42.260;23.116;2023-07-02T08:16:50;8.47;;;5.87;;
7773;SDS011;3931;42.260;23.116;2023-07-02T08:19:16;9.60;;;5.37;;
7773;SDS011;3931;42.260;23.116;2023-07-02T08:21:42;6.70;;;4.90;;
7773;SDS011;3931;42.260;23.116;2023-07-02T08:24:08;12.47;;;6.37;;
7773;SDS011;3931;42.260;23.116;2023-07-02T08:26:34;15.10;;;6.00;;
7773;SDS011;3931;42.260;23.116;2023-07-02T08:29:03;9.33;;;6.00;;
7773;SDS011;3931;42.260;23.116;2023-07-02T08:31:29;8.33;;;4.70;;
7773;SDS011;3931;42.260;23.116;2023-07-02T08:33:55;9.10;;;5.50;;
7773;SDS011;3931;42.260;23.116;2023-07-02T08:36:21;13.50;;;7.53;;
7773;SDS011;3931;42.260;23.116;2023-07-02T08:38:47;11.00;;;5.70;;
7773;SDS011;3931;42.260;23.116;2023-07-02T08:41:13;8.57;;;5.83;;
7773;SDS011;3931;42.260;23.116;2023-07-02T08:43:39;9.23;;;5.33;;
7773;SDS011;3931;42.260;23.116;2023-07-02T08:46:07;16.00;;;4.90;;
7773;SDS011;3931;42.260;23.116;2023-07-02T08:48:33;7.87;;;5.00;;
7773;SDS011;3931;42.260;23.116;2023-07-02T08:50:59;9.10;;;4.63;;
7773;SDS011;3931;42.260;23.116;2023-07-02T08:53:26;8.43;;;5.50;;
7773;SDS011;3931;42.260;23.116;2023-07-02T08:55:54;8.27;;;5.10;;
7773;SDS011;3931;42.260;23.116;2023-07-02T08:58:20;11.47;;;5.57;;
7773;SDS011;3931;42.260;23.116;2023-07-02T09:03:32;8.27;;;5.30;;
7773;SDS011;3931;42.260;23.116;2023-07-02T09:05:58;12.33;;;5.87;;
7773;SDS011;3931;42.260;23.116;2023-07-02T09:08:24;7.00;;;5.20;;
7773;SDS011;3931;42.260;23.116;2023-07-02T09:10:51;8.17;;;5.50;;
7773;SDS011;3931;42.260;23.116;2023-07-02T09:13:17;11.20;;;6.00;;
7773;SDS011;3931;42.260;23.116;2023-07-02T09:15:43;13.80;;;5.83;;
7773;SDS011;3931;42.260;23.116;2023-07-02T09:18:16;9.90;;;5.17;;
7773;SDS011;3931;42.260;23.116;2023-07-02T09:20:43;11.00;;;6.43;;
7773;SDS011;3931;42.260;23.116;2023-07-02T09:23:09;12.50;;;6.20;;
7773;SDS011;3931;42.260;23.116;2023-07-02T09:25:36;7.47;;;5.40;;
7773;SDS011;3931;42.260;23.116;2023-07-02T09:28:13;7.50;;;5.73;;
7773;SDS011;3931;42.260;23.116;2023-07-02T09:30:48;12.17;;;6.10;;
7773;SDS011;3931;42.260;23.116;2023-07-02T09:33:15;10.47;;;5.63;;
7773;SDS011;3931;42.260;23.116;2023-07-02T09:35:42;11.57;;;6.40;;
7773;SDS011;3931;42.260;23.116;2023-07-02T09:38:09;7.90;;;5.37;;
7773;SDS011;3931;42.260;23.116;2023-07-02T09:40:35;10.67;;;6.10;;
7773;SDS011;3931;42.260;23.116;2023-07-02T09:43:09;9.03;;;6.30;;
7773;SDS011;3931;42.260;23.116;2023-07-02T09:45:36;6.63;;;5.27;;
7773;SDS011;3931;42.260;23.116;2023-07-02T09:48:04;7.83;;;5.83;;
7773;SDS011;3931;42.260;23.116;2023-07-02T09:50:32;8.20;;;5.50;;
7773;SDS011;3931;42.260;23.116;2023-07-02T09:52:59;11.00;;;6.83;;
7773;SDS011;3931;42.260;23.116;2023-07-02T09:55:25;14.60;;;6.27;;
7773;SDS011;3931;42.260;23.116;2023-07-02T09:57:51;15.57;;;7.00;;
7773;SDS011;3931;42.260;23.116;2023-07-02T10:00:18;10.13;;;5.80;;
7773;SDS011;3931;42.260;23.116;2023-07-02T10:02:47;7.53;;;5.57;;
7773;SDS011;3931;42.260;23.116;2023-07-02T10:05:24;8.07;;;5.33;;
7773;SDS011;3931;42.260;23.116;2023-07-02T10:07:51;8.80;;;5.13;;
7773;SDS011;3931;42.260;23.116;2023-07-02T10:10:25;10.53;;;5.40;;
7773;SDS011;3931;42.260;23.116;2023-07-02T10:12:53;8.00;;;5.40;;
7773;SDS011;3931;42.260;23.116;2023-07-02T10:15:23;10.17;;;5.63;;
7773;SDS011;3931;42.260;23.116;2023-07-02T10:17:54;9.50;;;5.60;;
7773;SDS011;3931;42.260;23.116;2023-07-02T10:20:30;6.60;;;5.13;;
7773;SDS011;3931;42.260;23.116;2023-07-02T10:22:57;8.80;;;5.67;;
7773;SDS011;3931;42.260;23.116;2023-07-02T10:25:24;9.37;;;5.80;;
7773;SDS011;3931;42.260;23.116;2023-07-02T10:27:51;10.90;;;6.37;;
7773;SDS011;3931;42.260;23.116;2023-07-02T10:30:17;7.87;;;5.20;;
7773;SDS011;3931;42.260;23.116;2023-07-02T10:32:43;11.60;;;5.17;;
7773;SDS011;3931;42.260;23.116;2023-07-02T10:35:13;8.57;;;5.80;;
7773;SDS011;3931;42.260;23.116;2023-07-02T10:37:40;11.60;;;5.60;;
7773;SDS011;3931;42.260;23.116;2023-07-02T10:40:06;8.23;;;5.40;;
7773;SDS011;3931;42.260;23.116;2023-07-02T10:42:44;9.80;;;5.40;;
7773;SDS011;3931;42.260;23.116;2023-07-02T10:45:11;4.87;;;3.90;;
7773;SDS011;3931;42.260;23.116;2023-07-02T10:47:39;5.80;;;4.37;;
7773;SDS011;3931;42.260;23.116;2023-07-02T10:50:13;6.80;;;4.10;;
7773;SDS011;3931;42.260;23.116;2023-07-02T10:52:40;5.90;;;3.53;;
7773;SDS011;3931;42.260;23.116;2023-07-02T10:55:06;8.50;;;3.70;;
7773;SDS011;3931;42.260;23.116;2023-07-02T10:57:33;7.70;;;4.20;;
7773;SDS011;3931;42.260;23.116;2023-07-02T11:00:03;3.90;;;2.90;;
7773;SDS011;3931;42.260;23.116;2023-07-02T11:02:34;6.40;;;3.27;;
7773;SDS011;3931;42.260;23.116;2023-07-02T11:05:00;6.13;;;4.50;;
7773;SDS011;3931;42.260;23.116;2023-07-02T11:07:26;4.10;;;3.20;;
7773;SDS011;3931;42.260;23.116;2023-07-02T11:09:52;4.80;;;3.87;;
7773;SDS011;3931;42.260;23.116;2023-07-02T11:12:22;15.13;;;9.97;;
7773;SDS011;3931;42.260;23.116;2023-07-02T11:14:53;5.60;;;4.67;;
7773;SDS011;3931;42.260;23.116;2023-07-02T11:17:24;8.00;;;4.63;;
7773;SDS011;3931;42.260;23.116;2023-07-02T11:19:51;6.47;;;4.20;;
7773;SDS011;3931;42.260;23.116;2023-07-02T11:22:18;8.07;;;4.90;;
7773;SDS011;3931;42.260;23.116;2023-07-02T11:24:44;6.00;;;4.93;;
7773;SDS011;3931;42.260;23.116;2023-07-02T11:27:10;6.07;;;4.23;;
7773;SDS011;3931;42.260;23.116;2023-07-02T11:29:46;7.90;;;4.30;;
7773;SDS011;3931;42.260;23.116;2023-07-02T11:32:12;9.33;;;4.33;;
7773;SDS011;3931;42.260;23.116;2023-07-02T11:34:39;7.47;;;4.87;;
7773;SDS011;3931;42.260;23.116;2023-07-02T11:37:06;5.63;;;4.70;;
7773;SDS011;3931;42.260;23.116;2023-07-02T11:39:32;8.70;;;4.67;;
7773;SDS011;3931;42.260;23.116;2023-07-02T11:41:58;5.23;;;4.13;;
7773;SDS011;3931;42.260;23.116;2023-07-02T11:44:24;7.40;;;4.73;;
7773;SDS011;3931;42.260;23.116;2023-07-02T11:46:50;5.50;;;4.63;;
7773;SDS011;3931;42.260;23.116;2023-07-02T11:49:17;8.30;;;4.73;;
7773;SDS011;3931;42.260;23.116;2023-07-02T11:51:44;7.10;;;5.53;;
7773;SDS011;3931;42.260;23.116;2023-07-02T11:54:14;11.33;;;6.17;;
7773;SDS011;3931;42.260;23.116;2023-07-02T11:56:40;9.10;;;5.90;;
7773;SDS011;3931;42.260;23.116;2023-07-02T11:59:07;12.43;;;6.10;;
7773;SDS011;3931;42.260;23.116;2023-07-02T12:01:33;9.00;;;6.80;;
7773;SDS011;3931;42.260;23.116;2023-07-02T12:03:59;10.17;;;6.77;;
7773;SDS011;3931;42.260;23.116;2023-07-02T12:06:26;16.77;;;6.57;;
7773;SDS011;3931;42.260;23.116;2023-07-02T12:08:52;9.53;;;6.70;;
7773;SDS011;3931;42.260;23.116;2023-07-02T12:11:18;15.73;;;6.27;;
7773;SDS011;3931;42.260;23.116;2023-07-02T12:13:45;12.10;;;6.13;;
7773;SDS011;3931;42.260;23.116;2023-07-02T12:16:11;11.17;;;6.43;;
7773;SDS011;3931;42.260;23.116;2023-07-02T12:18:37;8.73;;;7.07;;
7773;SDS011;3931;42.260;23.116;2023-07-02T12:21:03;10.10;;;7.00;;
7773;SDS011;3931;42.260;23.116;2023-07-02T12:23:29;10.40;;;7.50;;
7773;SDS011;3931;42.260;23.116;2023-07-02T12:25:56;19.43;;;6.23;;
7773;SDS011;3931;42.260;23.116;2023-07-02T12:28:22;11.47;;;6.47;;
7773;SDS011;3931;42.260;23.116;2023-07-02T12:30:49;10.87;;;6.63;;
7773;SDS011;3931;42.260;23.116;2023-07-02T12:33:15;11.03;;;5.70;;
7773;SDS011;3931;42.260;23.116;2023-07-02T12:35:41;12.73;;;6.13;;
7773;SDS011;3931;42.260;23.116;2023-07-02T12:38:07;8.17;;;6.77;;
7773;SDS011;3931;42.260;23.116;2023-07-02T12:40:33;8.43;;;6.90;;
7773;SDS011;3931;42.260;23.116;2023-07-02T12:43:00;9.77;;;6.30;;
7773;SDS011;3931;42.260;23.116;2023-07-02T12:45:26;9.63;;;7.60;;
7773;SDS011;3931;42.260;23.116;2023-07-02T12:47:53;7.80;;;5.80;;
7773;SDS011;3931;42.260;23.116;2023-07-02T12:50:19;9.73;;;6.70;;
7773;SDS011;3931;42.260;23.116;2023-07-02T12:52:45;7.50;;;5.57;;
7773;SDS011;3931;42.260;23.116;2023-07-02T12:55:11;9.50;;;6.23;;
7773;SDS011;3931;42.260;23.116;2023-07-02T12:57:37;12.70;;;6.30;;
7773;SDS011;3931;42.260;23.116;2023-07-02T13:00:03;8.87;;;6.03;;
7773;SDS011;3931;42.260;23.116;2023-07-02T13:02:32;9.97;;;6.20;;
7773;SDS011;3931;42.260;23.116;2023-07-02T13:04:58;9.97;;;6.53;;
7773;SDS011;3931;42.260;23.116;2023-07-02T13:07:24;11.10;;;6.33;;
7773;SDS011;3931;42.260;23.116;2023-07-02T13:09:50;9.30;;;6.17;;
7773;SDS011;3931;42.260;23.116;2023-07-02T13:12:17;10.20;;;6.53;;
7773;SDS011;3931;42.260;23.116;2023-07-02T13:14:43;11.13;;;5.93;;
7773;SDS011;3931;42.260;23.116;2023-07-02T13:17:09;8.20;;;6.07;;
7773;SDS011;3931;42.260;23.116;2023-07-02T13:19:36;9.20;;;7.13;;
7773;SDS011;3931;42.260;23.116;2023-07-02T13:22:02;11.20;;;6.63;;
7773;SDS011;3931;42.260;23.116;2023-07-02T13:24:28;7.70;;;5.53;;
7773;SDS011;3931;42.260;23.116;2023-07-02T13:26:59;9.07;;;6.10;;
7773;SDS011;3931;42.260;23.116;2023-07-02T13:29:26;10.40;;;6.77;;
7773;SDS011;3931;42.260;23.116;2023-07-02T13:31:52;9.00;;;7.00;;
7773;SDS011;3931;42.260;23.116;2023-07-02T13:34:18;11.07;;;7.10;;
7773;SDS011;3931;42.260;23.116;2023-07-02T13:36:45;7.20;;;5.90;;
7773;SDS011;3931;42.260;23.116;2023-07-02T13:39:11;13.80;;;6.17;;
7773;SDS011;3931;42.260;23.116;2023-07-02T13:41:37;11.47;;;6.40;;
7773;SDS011;3931;42.260;23.116;2023-07-02T13:44:03;9.80;;;7.10;;
7773;SDS011;3931;42.260;23.116;2023-07-02T13:46:30;12.20;;;6.20;;
7773;SDS011;3931;42.260;23.116;2023-07-02T13:48:56;10.23;;;7.10;;
7773;SDS011;3931;42.260;23.116;2023-07-02T13:51:22;7.10;;;5.37;;
7773;SDS011;3931;42.260;23.116;2023-07-02T13:53:49;8.20;;;6.43;;
7773;SDS011;3931;42.260;23.116;2023-07-02T13:56:15;8.67;;;6.10;;
7773;SDS011;3931;42.260;23.116;2023-07-02T13:58:58;10.20;;;6.43;;
7773;SDS011;3931;42.260;23.116;2023-07-02T14:01:26;7.63;;;6.07;;
7773;SDS011;3931;42.260;23.116;2023-07-02T14:03:52;15.00;;;6.27;;
7773;SDS011;3931;42.260;23.116;2023-07-02T14:06:19;7.90;;;6.13;;
7773;SDS011;3931;42.260;23.116;2023-07-02T14:08:47;7.90;;;5.97;;
7773;SDS011;3931;42.260;23.116;2023-07-02T14:11:13;8.70;;;6.13;;
7773;SDS011;3931;42.260;23.116;2023-07-02T14:13:39;7.87;;;5.80;;
7773;SDS011;3931;42.260;23.116;2023-07-02T14:16:06;7.87;;;5.60;;
7773;SDS011;3931;42.260;23.116;2023-07-02T14:18:32;7.63;;;5.83;;
7773;SDS011;3931;42.260;23.116;2023-07-02T14:20:58;8.43;;;5.73;;
7773;SDS011;3931;42.260;23.116;2023-07-02T14:23:26;7.93;;;5.60;;
7773;SDS011;3931;42.260;23.116;2023-07-02T14:25:52;9.43;;;5.93;;
7773;SDS011;3931;42.260;23.116;2023-07-02T14:28:18;8.47;;;5.97;;
7773;SDS011;3931;42.260;23.116;2023-07-02T14:30:44;9.63;;;6.60;;
7773;SDS011;3931;42.260;23.116;2023-07-02T14:33:12;7.70;;;6.30;;
7773;SDS011;3931;42.260;23.116;2023-07-02T14:35:38;7.90;;;5.10;;
7773;SDS011;3931;42.260;23.116;2023-07-02T14:38:05;10.35;;;5.68;;
7773;SDS011;3931;42.260;23.116;2023-07-02T14:40:31;8.50;;;6.00;;
7773;SDS011;3931;42.260;23.116;2023-07-02T14:42:58;8.50;;;5.80;;
7773;SDS011;3931;42.260;23.116;2023-07-02T14:45:24;12.50;;;6.40;;
7773;SDS011;3931;42.260;23.116;2023-07-02T14:47:50;7.37;;;5.47;;
7773;SDS011;3931;42.260;23.116;2023-07-02T14:50:16;7.73;;;5.77;;
7773;SDS011;3931;42.260;23.116;2023-07-02T14:52:43;10.00;;;5.80;;